sensor_id;sensor_type;location;lat;lon;timestamp;temperature;humidity
9305;DHT22;4690;52.422;13.486;2022-11-20T00:04:04;-0.20;99.90
9305;DHT22;4690;52.422;13.486;2022-11-20T00:06:30;-0.20;99.90
9305;DHT22;4690;52.422;13.486;2022-11-20T00:12:38;-0.20;99.90
9305;DHT22;4690;52.422;13.486;2022-11-20T00:15:07;-0.20;99.90
9305;DHT22;4690;52.422;13.486;2022-11-20T00:17:33;-0.20;99.90
9305;DHT22;4690;52.422;13.486;2022-11-20T00:19:59;-0.20;99.90
9305;DHT22;4690;52.422;13.486;2022-11-20T00:22:25;-0.20;99.90
9305;DHT22;4690;52.422;13.486;2022-11-20T00:24:50;-0.20;99.90
9305;DHT22;4690;52.422;13.486;2022-11-20T00:27:16;-0.20;99.90
9305;DHT22;4690;52.422;13.486;2022-11-20T00:29:42;-0.30;99.90
9305;DHT22;4690;52.422;13.486;2022-11-20T00:32:07;-0.30;99.90
9305;DHT22;4690;52.422;13.486;2022-11-20T00:34:33;-0.30;99.90
9305;DHT22;4690;52.422;13.486;2022-11-20T00:36:59;-0.30;99.90
9305;DHT22;4690;52.422;13.486;2022-11-20T00:39:25;-0.30;99.90
9305;DHT22;4690;52.422;13.486;2022-11-20T00:41:50;-0.20;99.90
9305;DHT22;4690;52.422;13.486;2022-11-20T00:44:16;-0.30;99.90
9305;DHT22;4690;52.422;13.486;2022-11-20T00:46:42;-0.30;99.90
9305;DHT22;4690;52.422;13.486;2022-11-20T00:49:07;-0.30;99.90
9305;DHT22;4690;52.422;13.486;2022-11-20T00:51:33;-0.30;99.90
9305;DHT22;4690;52.422;13.486;2022-11-20T00:53:59;-0.30;99.90
9305;DHT22;4690;52.422;13.486;2022-11-20T00:56:25;-0.30;99.90
9305;DHT22;4690;52.422;13.486;2022-11-20T00:58:51;-0.30;99.90
9305;DHT22;4690;52.422;13.486;2022-11-20T01:01:21;-0.40;99.90
9305;DHT22;4690;52.422;13.486;2022-11-20T01:03:50;-0.40;99.90
9305;DHT22;4690;52.422;13.486;2022-11-20T01:06:23;-0.40;99.90
9305;DHT22;4690;52.422;13.486;2022-11-20T01:08:52;-0.40;99.90
9305;DHT22;4690;52.422;13.486;2022-11-20T01:11:31;-0.40;99.90
9305;DHT22;4690;52.422;13.486;2022-11-20T01:14:01;-0.40;99.90
9305;DHT22;4690;52.422;13.486;2022-11-20T01:16:35;-0.40;99.90
9305;DHT22;4690;52.422;13.486;2022-11-20T01:19:06;-0.40;99.90
9305;DHT22;4690;52.422;13.486;2022-11-20T01:21:37;-0.40;99.90
9305;DHT22;4690;52.422;13.486;2022-11-20T01:24:06;-0.40;99.90
9305;DHT22;4690;52.422;13.486;2022-11-20T01:26:35;-0.40;99.90
9305;DHT22;4690;52.422;13.486;2022-11-20T01:29:03;-0.40;99.90
9305;DHT22;4690;52.422;13.486;2022-11-20T01:31:34;-0.40;99.90
9305;DHT22;4690;52.422;13.486;2022-11-20T01:34:11;-0.40;99.90
9305;DHT22;4690;52.422;13.486;2022-11-20T01:36:39;-0.50;99.90
9305;DHT22;4690;52.422;13.486;2022-11-20T01:39:11;-0.40;99.90
9305;DHT22;4690;52.422;13.486;2022-11-20T01:41:38;-0.40;99.90
9305;DHT22;4690;52.422;13.486;2022-11-20T01:47:39;-0.40;99.90
9305;DHT22;4690;52.422;13.486;2022-11-20T01:50:16;-0.40;99.90
9305;DHT22;4690;52.422;13.486;2022-11-20T01:53:05;-0.50;99.90
9305;DHT22;4690;52.422;13.486;2022-11-20T01:55:39;-0.50;99.90
9305;DHT22;4690;52.422;13.486;2022-11-20T01:58:07;-0.50;99.90
9305;DHT22;4690;52.422;13.486;2022-11-20T02:00:34;-0.50;99.90
9305;DHT22;4690;52.422;13.486;2022-11-20T02:03:06;-0.50;99.90
9305;DHT22;4690;52.422;13.486;2022-11-20T02:08:28;-0.50;99.90
9305;DHT22;4690;52.422;13.486;2022-11-20T02:10:54;-0.50;99.90
9305;DHT22;4690;52.422;13.486;2022-11-20T02:13:20;-0.50;99.90
9305;DHT22;4690;52.422;13.486;2022-11-20T02:16:10;-0.60;99.90
9305;DHT22;4690;52.422;13.486;2022-11-20T02:18:39;-0.60;99.90
9305;DHT22;4690;52.422;13.486;2022-11-20T02:21:28;-0.60;99.90
9305;DHT22;4690;52.422;13.486;2022-11-20T02:26:33;-0.60;99.90
9305;DHT22;4690;52.422;13.486;2022-11-20T02:29:03;-0.60;99.90
9305;DHT22;4690;52.422;13.486;2022-11-20T02:31:33;-0.60;99.90
9305;DHT22;4690;52.422;13.486;2022-11-20T02:34:08;-0.60;99.90
9305;DHT22;4690;52.422;13.486;2022-11-20T02:36:35;-0.70;99.90
9305;DHT22;4690;52.422;13.486;2022-11-20T02:39:04;-0.60;99.90
9305;DHT22;4690;52.422;13.486;2022-11-20T02:41:37;-0.60;99.90
9305;DHT22;4690;52.422;13.486;2022-11-20T02:44:04;-0.60;99.90
9305;DHT22;4690;52.422;13.486;2022-11-20T02:46:32;-0.60;99.90
9305;DHT22;4690;52.422;13.486;2022-11-20T02:48:58;-0.60;99.90
9305;DHT22;4690;52.422;13.486;2022-11-20T02:51:24;-0.70;99.90
9305;DHT22;4690;52.422;13.486;2022-11-20T02:53:50;-0.60;99.90
9305;DHT22;4690;52.422;13.486;2022-11-20T02:56:16;-0.70;99.90
9305;DHT22;4690;52.422;13.486;2022-11-20T02:58:42;-0.60;99.90
9305;DHT22;4690;52.422;13.486;2022-11-20T03:01:07;-0.70;99.90
9305;DHT22;4690;52.422;13.486;2022-11-20T03:03:33;-0.70;99.90
9305;DHT22;4690;52.422;13.486;2022-11-20T03:05:59;-0.70;99.90
9305;DHT22;4690;52.422;13.486;2022-11-20T03:08:25;-0.70;99.90
9305;DHT22;4690;52.422;13.486;2022-11-20T03:10:51;-0.70;99.90
9305;DHT22;4690;52.422;13.486;2022-11-20T03:13:17;-0.70;99.90
9305;DHT22;4690;52.422;13.486;2022-11-20T03:15:43;-0.80;99.90
9305;DHT22;4690;52.422;13.486;2022-11-20T03:18:09;-0.80;99.90
9305;DHT22;4690;52.422;13.486;2022-11-20T03:20:35;-0.90;99.90
9305;DHT22;4690;52.422;13.486;2022-11-20T03:23:01;-0.90;99.90
9305;DHT22;4690;52.422;13.486;2022-11-20T03:25:27;-0.90;99.90
9305;DHT22;4690;52.422;13.486;2022-11-20T03:27:53;-0.90;99.90
9305;DHT22;4690;52.422;13.486;2022-11-20T03:30:19;-0.90;99.90
9305;DHT22;4690;52.422;13.486;2022-11-20T03:32:45;-0.90;99.90
9305;DHT22;4690;52.422;13.486;2022-11-20T03:35:11;-0.90;99.90
9305;DHT22;4690;52.422;13.486;2022-11-20T03:37:37;-0.90;99.90
9305;DHT22;4690;52.422;13.486;2022-11-20T03:40:03;-1.00;99.90
9305;DHT22;4690;52.422;13.486;2022-11-20T03:42:30;-1.00;99.90
9305;DHT22;4690;52.422;13.486;2022-11-20T03:45:12;-1.00;99.90
9305;DHT22;4690;52.422;13.486;2022-11-20T03:47:39;-1.00;99.90
9305;DHT22;4690;52.422;13.486;2022-11-20T03:50:05;-1.00;99.90
9305;DHT22;4690;52.422;13.486;2022-11-20T03:52:31;-1.00;99.90
9305;DHT22;4690;52.422;13.486;2022-11-20T03:54:57;-1.00;99.90
9305;DHT22;4690;52.422;13.486;2022-11-20T03:57:22;-1.00;99.90
9305;DHT22;4690;52.422;13.486;2022-11-20T03:59:48;-1.00;99.90
9305;DHT22;4690;52.422;13.486;2022-11-20T04:02:14;-1.00;99.90
9305;DHT22;4690;52.422;13.486;2022-11-20T04:04:40;-1.00;99.90
9305;DHT22;4690;52.422;13.486;2022-11-20T04:07:05;-1.00;99.90
9305;DHT22;4690;52.422;13.486;2022-11-20T04:09:31;-1.00;99.90
9305;DHT22;4690;52.422;13.486;2022-11-20T04:11:57;-0.90;99.90
9305;DHT22;4690;52.422;13.486;2022-11-20T04:14:23;-1.00;99.90
9305;DHT22;4690;52.422;13.486;2022-11-20T04:16:48;-0.90;99.90
9305;DHT22;4690;52.422;13.486;2022-11-20T04:19:15;-0.90;99.90
9305;DHT22;4690;52.422;13.486;2022-11-20T04:21:42;-0.90;99.90
9305;DHT22;4690;52.422;13.486;2022-11-20T04:24:09;-0.90;99.90
9305;DHT22;4690;52.422;13.486;2022-11-20T04:26:38;-0.90;99.90
9305;DHT22;4690;52.422;13.486;2022-11-20T04:29:04;-0.80;99.90
9305;DHT22;4690;52.422;13.486;2022-11-20T04:31:33;-0.80;99.90
9305;DHT22;4690;52.422;13.486;2022-11-20T04:34:01;-0.80;99.90
9305;DHT22;4690;52.422;13.486;2022-11-20T04:36:31;-0.80;99.90
9305;DHT22;4690;52.422;13.486;2022-11-20T04:39:03;-0.80;99.90
9305;DHT22;4690;52.422;13.486;2022-11-20T04:41:34;-0.80;99.90
9305;DHT22;4690;52.422;13.486;2022-11-20T04:44:03;-0.80;99.90
9305;DHT22;4690;52.422;13.486;2022-11-20T04:46:36;-0.80;99.90
9305;DHT22;4690;52.422;13.486;2022-11-20T04:49:06;-0.80;99.90
9305;DHT22;4690;52.422;13.486;2022-11-20T04:51:33;-0.80;99.90
9305;DHT22;4690;52.422;13.486;2022-11-20T04:53:59;-0.80;99.90
9305;DHT22;4690;52.422;13.486;2022-11-20T04:56:25;-0.80;99.90
9305;DHT22;4690;52.422;13.486;2022-11-20T04:58:51;-0.70;99.90
9305;DHT22;4690;52.422;13.486;2022-11-20T05:01:22;-0.70;99.90
9305;DHT22;4690;52.422;13.486;2022-11-20T05:03:49;-0.70;99.90
9305;DHT22;4690;52.422;13.486;2022-11-20T05:06:17;-0.70;99.90
9305;DHT22;4690;52.422;13.486;2022-11-20T05:08:44;-0.70;99.90
9305;DHT22;4690;52.422;13.486;2022-11-20T05:11:12;-0.70;99.90
9305;DHT22;4690;52.422;13.486;2022-11-20T05:13:40;-0.70;99.90
9305;DHT22;4690;52.422;13.486;2022-11-20T05:16:09;-0.70;99.90
9305;DHT22;4690;52.422;13.486;2022-11-20T05:18:37;-0.70;99.90
9305;DHT22;4690;52.422;13.486;2022-11-20T05:21:03;-0.60;99.90
9305;DHT22;4690;52.422;13.486;2022-11-20T05:23:31;-0.60;99.90
9305;DHT22;4690;52.422;13.486;2022-11-20T05:25:58;-0.60;99.90
9305;DHT22;4690;52.422;13.486;2022-11-20T05:28:26;-0.60;99.90
9305;DHT22;4690;52.422;13.486;2022-11-20T05:30:53;-0.60;99.90
9305;DHT22;4690;52.422;13.486;2022-11-20T05:33:20;-0.60;99.90
9305;DHT22;4690;52.422;13.486;2022-11-20T05:35:46;-0.60;99.90
9305;DHT22;4690;52.422;13.486;2022-11-20T05:38:11;-0.50;99.90
9305;DHT22;4690;52.422;13.486;2022-11-20T05:40:37;-0.50;99.90
9305;DHT22;4690;52.422;13.486;2022-11-20T05:43:03;-0.50;99.90
9305;DHT22;4690;52.422;13.486;2022-11-20T05:45:29;-0.50;99.90
9305;DHT22;4690;52.422;13.486;2022-11-20T05:47:58;-0.50;99.90
9305;DHT22;4690;52.422;13.486;2022-11-20T05:50:26;-0.50;99.90
9305;DHT22;4690;52.422;13.486;2022-11-20T05:52:53;-0.60;99.90
9305;DHT22;4690;52.422;13.486;2022-11-20T05:55:18;-0.60;99.90
9305;DHT22;4690;52.422;13.486;2022-11-20T05:57:44;-0.60;99.90
9305;DHT22;4690;52.422;13.486;2022-11-20T06:00:10;-0.60;99.90
9305;DHT22;4690;52.422;13.486;2022-11-20T06:02:36;-0.50;99.90
9305;DHT22;4690;52.422;13.486;2022-11-20T06:05:02;-0.50;99.90
9305;DHT22;4690;52.422;13.486;2022-11-20T06:07:28;-0.50;99.90
9305;DHT22;4690;52.422;13.486;2022-11-20T06:09:54;-0.50;99.90
9305;DHT22;4690;52.422;13.486;2022-11-20T06:12:20;-0.50;99.90
9305;DHT22;4690;52.422;13.486;2022-11-20T06:14:45;-0.50;99.90
9305;DHT22;4690;52.422;13.486;2022-11-20T06:17:11;-0.50;99.90
9305;DHT22;4690;52.422;13.486;2022-11-20T06:19:37;-0.50;99.90
9305;DHT22;4690;52.422;13.486;2022-11-20T06:22:02;-0.50;99.90
9305;DHT22;4690;52.422;13.486;2022-11-20T06:24:28;-0.40;99.90
9305;DHT22;4690;52.422;13.486;2022-11-20T06:26:54;-0.50;99.90
9305;DHT22;4690;52.422;13.486;2022-11-20T06:29:20;-0.50;99.90
9305;DHT22;4690;52.422;13.486;2022-11-20T06:31:45;-0.50;99.90
9305;DHT22;4690;52.422;13.486;2022-11-20T06:34:11;-0.40;99.90
9305;DHT22;4690;52.422;13.486;2022-11-20T06:36:37;-0.50;99.90
9305;DHT22;4690;52.422;13.486;2022-11-20T06:39:03;-0.50;99.90
9305;DHT22;4690;52.422;13.486;2022-11-20T06:41:29;-0.50;99.90
9305;DHT22;4690;52.422;13.486;2022-11-20T06:43:55;-0.50;99.90
9305;DHT22;4690;52.422;13.486;2022-11-20T06:46:20;-0.50;99.90
9305;DHT22;4690;52.422;13.486;2022-11-20T06:48:47;-0.50;99.90
9305;DHT22;4690;52.422;13.486;2022-11-20T06:51:14;-0.50;99.90
9305;DHT22;4690;52.422;13.486;2022-11-20T06:53:40;-0.50;99.90
9305;DHT22;4690;52.422;13.486;2022-11-20T06:56:06;-0.50;99.90
9305;DHT22;4690;52.422;13.486;2022-11-20T06:58:34;-0.50;99.90
9305;DHT22;4690;52.422;13.486;2022-11-20T07:01:03;-0.50;99.90
9305;DHT22;4690;52.422;13.486;2022-11-20T07:03:30;-0.50;99.90
9305;DHT22;4690;52.422;13.486;2022-11-20T07:05:58;-0.60;99.90
9305;DHT22;4690;52.422;13.486;2022-11-20T07:08:25;-0.60;99.90
9305;DHT22;4690;52.422;13.486;2022-11-20T07:10:51;-0.60;99.90
9305;DHT22;4690;52.422;13.486;2022-11-20T07:13:17;-0.60;99.90
9305;DHT22;4690;52.422;13.486;2022-11-20T07:15:43;-0.60;99.90
9305;DHT22;4690;52.422;13.486;2022-11-20T07:18:09;-0.60;99.90
9305;DHT22;4690;52.422;13.486;2022-11-20T07:20:35;-0.70;99.90
9305;DHT22;4690;52.422;13.486;2022-11-20T07:23:01;-0.70;99.90
9305;DHT22;4690;52.422;13.486;2022-11-20T07:25:28;-0.70;99.90
9305;DHT22;4690;52.422;13.486;2022-11-20T07:28:00;-0.70;99.90
9305;DHT22;4690;52.422;13.486;2022-11-20T07:30:30;-0.70;99.90
9305;DHT22;4690;52.422;13.486;2022-11-20T07:32:56;-0.70;99.90
9305;DHT22;4690;52.422;13.486;2022-11-20T07:35:23;-0.70;99.90
9305;DHT22;4690;52.422;13.486;2022-11-20T07:37:50;-0.70;99.90
9305;DHT22;4690;52.422;13.486;2022-11-20T07:40:16;-0.80;99.90
9305;DHT22;4690;52.422;13.486;2022-11-20T07:42:50;-0.80;99.90
9305;DHT22;4690;52.422;13.486;2022-11-20T07:45:21;-0.80;99.90
9305;DHT22;4690;52.422;13.486;2022-11-20T07:47:48;-0.80;99.90
9305;DHT22;4690;52.422;13.486;2022-11-20T07:50:15;-0.80;99.90
9305;DHT22;4690;52.422;13.486;2022-11-20T07:52:41;-0.70;99.90
9305;DHT22;4690;52.422;13.486;2022-11-20T07:55:09;-0.70;99.90
9305;DHT22;4690;52.422;13.486;2022-11-20T07:57:35;-0.70;99.90
9305;DHT22;4690;52.422;13.486;2022-11-20T08:00:02;-0.70;99.90
9305;DHT22;4690;52.422;13.486;2022-11-20T08:02:29;-0.60;99.90
9305;DHT22;4690;52.422;13.486;2022-11-20T08:04:55;-0.70;99.90
9305;DHT22;4690;52.422;13.486;2022-11-20T08:07:21;-0.60;99.90
9305;DHT22;4690;52.422;13.486;2022-11-20T08:09:46;-0.60;99.90
9305;DHT22;4690;52.422;13.486;2022-11-20T08:12:20;-0.60;99.90
9305;DHT22;4690;52.422;13.486;2022-11-20T08:15:05;-0.50;99.90
9305;DHT22;4690;52.422;13.486;2022-11-20T08:17:32;-0.50;99.90
9305;DHT22;4690;52.422;13.486;2022-11-20T08:19:58;-0.50;99.90
9305;DHT22;4690;52.422;13.486;2022-11-20T08:22:23;-0.50;99.90
9305;DHT22;4690;52.422;13.486;2022-11-20T08:24:50;-0.50;99.90
9305;DHT22;4690;52.422;13.486;2022-11-20T08:27:16;-0.50;99.90
9305;DHT22;4690;52.422;13.486;2022-11-20T08:29:41;-0.50;99.90
9305;DHT22;4690;52.422;13.486;2022-11-20T08:32:07;-0.50;99.90
9305;DHT22;4690;52.422;13.486;2022-11-20T08:34:33;-0.40;99.90
9305;DHT22;4690;52.422;13.486;2022-11-20T08:36:59;-0.40;99.90
9305;DHT22;4690;52.422;13.486;2022-11-20T08:39:26;-0.40;99.90
9305;DHT22;4690;52.422;13.486;2022-11-20T08:41:52;-0.40;99.90
9305;DHT22;4690;52.422;13.486;2022-11-20T08:44:18;-0.40;99.90
9305;DHT22;4690;52.422;13.486;2022-11-20T08:46:43;-0.40;99.90
9305;DHT22;4690;52.422;13.486;2022-11-20T08:49:12;-0.30;99.90
9305;DHT22;4690;52.422;13.486;2022-11-20T08:51:39;-0.40;99.90
9305;DHT22;4690;52.422;13.486;2022-11-20T08:54:05;-0.40;99.90
9305;DHT22;4690;52.422;13.486;2022-11-20T08:56:33;-0.40;99.90
9305;DHT22;4690;52.422;13.486;2022-11-20T08:59:00;-0.50;99.90
9305;DHT22;4690;52.422;13.486;2022-11-20T09:01:26;-0.40;99.90
9305;DHT22;4690;52.422;13.486;2022-11-20T09:03:55;-0.40;99.90
9305;DHT22;4690;52.422;13.486;2022-11-20T09:06:22;-0.40;99.90
9305;DHT22;4690;52.422;13.486;2022-11-20T09:08:52;-0.40;99.90
9305;DHT22;4690;52.422;13.486;2022-11-20T09:11:22;-0.40;99.90
9305;DHT22;4690;52.422;13.486;2022-11-20T09:13:48;-0.40;99.90
9305;DHT22;4690;52.422;13.486;2022-11-20T09:16:14;-0.40;99.90
9305;DHT22;4690;52.422;13.486;2022-11-20T09:18:40;-0.30;99.90
9305;DHT22;4690;52.422;13.486;2022-11-20T09:21:11;-0.30;99.90
9305;DHT22;4690;52.422;13.486;2022-11-20T09:23:38;-0.30;99.90
9305;DHT22;4690;52.422;13.486;2022-11-20T09:26:13;-0.40;99.90
9305;DHT22;4690;52.422;13.486;2022-11-20T09:28:39;-0.40;99.90
9305;DHT22;4690;52.422;13.486;2022-11-20T09:31:17;-0.50;99.90
9305;DHT22;4690;52.422;13.486;2022-11-20T09:33:47;-0.50;99.90
9305;DHT22;4690;52.422;13.486;2022-11-20T09:36:13;-0.50;99.90
9305;DHT22;4690;52.422;13.486;2022-11-20T09:38:39;-0.40;99.90
9305;DHT22;4690;52.422;13.486;2022-11-20T09:41:06;-0.40;99.90
9305;DHT22;4690;52.422;13.486;2022-11-20T09:43:59;-0.40;99.90
9305;DHT22;4690;52.422;13.486;2022-11-20T09:47:01;-0.50;99.90
9305;DHT22;4690;52.422;13.486;2022-11-20T09:55:12;-0.50;99.90
9305;DHT22;4690;52.422;13.486;2022-11-20T09:57:43;-0.50;99.90
9305;DHT22;4690;52.422;13.486;2022-11-20T10:00:14;-0.50;99.90
9305;DHT22;4690;52.422;13.486;2022-11-20T10:10:53;-0.50;99.90
9305;DHT22;4690;52.422;13.486;2022-11-20T10:13:56;-0.60;99.90
9305;DHT22;4690;52.422;13.486;2022-11-20T10:16:41;-0.40;99.90
9305;DHT22;4690;52.422;13.486;2022-11-20T10:28:00;-0.40;99.90
9305;DHT22;4690;52.422;13.486;2022-11-20T10:30:31;-0.30;99.90
9305;DHT22;4690;52.422;13.486;2022-11-20T10:33:22;-0.40;99.90
9305;DHT22;4690;52.422;13.486;2022-11-20T10:36:05;-0.30;99.90
9305;DHT22;4690;52.422;13.486;2022-11-20T10:38:44;-0.30;99.90
9305;DHT22;4690;52.422;13.486;2022-11-20T10:41:26;-0.30;99.90
9305;DHT22;4690;52.422;13.486;2022-11-20T10:44:17;-0.30;99.90
9305;DHT22;4690;52.422;13.486;2022-11-20T10:47:05;-0.20;99.90
9305;DHT22;4690;52.422;13.486;2022-11-20T10:49:37;-0.20;99.90
9305;DHT22;4690;52.422;13.486;2022-11-20T10:52:21;-0.20;99.90
9305;DHT22;4690;52.422;13.486;2022-11-20T10:55:11;-0.10;99.90
9305;DHT22;4690;52.422;13.486;2022-11-20T11:00:35;-0.10;99.90
9305;DHT22;4690;52.422;13.486;2022-11-20T11:03:01;0.10;99.90
9305;DHT22;4690;52.422;13.486;2022-11-20T11:05:36;0.10;99.90
9305;DHT22;4690;52.422;13.486;2022-11-20T11:08:05;0.10;99.90
9305;DHT22;4690;52.422;13.486;2022-11-20T11:10:53;0.10;99.90
9305;DHT22;4690;52.422;13.486;2022-11-20T11:13:26;0.10;99.90
9305;DHT22;4690;52.422;13.486;2022-11-20T11:15:54;0.20;99.90
9305;DHT22;4690;52.422;13.486;2022-11-20T11:18:32;0.20;99.90
9305;DHT22;4690;52.422;13.486;2022-11-20T11:21:01;0.20;99.90
9305;DHT22;4690;52.422;13.486;2022-11-20T11:23:32;0.10;99.90
9305;DHT22;4690;52.422;13.486;2022-11-20T11:26:03;0.10;99.90
9305;DHT22;4690;52.422;13.486;2022-11-20T11:28:31;0.10;99.90
9305;DHT22;4690;52.422;13.486;2022-11-20T11:30:58;0.10;99.90
9305;DHT22;4690;52.422;13.486;2022-11-20T11:33:28;0.10;99.90
9305;DHT22;4690;52.422;13.486;2022-11-20T11:36:20;0.10;99.90
9305;DHT22;4690;52.422;13.486;2022-11-20T11:38:52;0.20;99.90
9305;DHT22;4690;52.422;13.486;2022-11-20T11:41:23;0.40;99.90
9305;DHT22;4690;52.422;13.486;2022-11-20T11:44:00;0.50;99.90
9305;DHT22;4690;52.422;13.486;2022-11-20T11:46:58;0.50;99.90
9305;DHT22;4690;52.422;13.486;2022-11-20T11:49:24;0.60;99.90
9305;DHT22;4690;52.422;13.486;2022-11-20T11:54:50;0.70;99.90
9305;DHT22;4690;52.422;13.486;2022-11-20T11:57:45;0.80;99.90
9305;DHT22;4690;52.422;13.486;2022-11-20T12:00:20;0.80;99.90
9305;DHT22;4690;52.422;13.486;2022-11-20T12:05:58;0.80;99.90
9305;DHT22;4690;52.422;13.486;2022-11-20T12:11:53;1.00;99.90
9305;DHT22;4690;52.422;13.486;2022-11-20T12:14:40;1.10;99.90
9305;DHT22;4690;52.422;13.486;2022-11-20T12:17:12;1.20;99.90
9305;DHT22;4690;52.422;13.486;2022-11-20T12:19:40;1.20;99.90
9305;DHT22;4690;52.422;13.486;2022-11-20T12:25:18;1.40;99.90
9305;DHT22;4690;52.422;13.486;2022-11-20T12:34:28;1.50;99.90
9305;DHT22;4690;52.422;13.486;2022-11-20T12:37:21;1.60;99.90
9305;DHT22;4690;52.422;13.486;2022-11-20T12:39:56;1.60;99.90
9305;DHT22;4690;52.422;13.486;2022-11-20T12:45:35;1.60;99.90
9305;DHT22;4690;52.422;13.486;2022-11-20T12:54:55;1.30;99.90
9305;DHT22;4690;52.422;13.486;2022-11-20T13:06:46;1.00;99.90
9305;DHT22;4690;52.422;13.486;2022-11-20T13:09:16;0.90;99.90
9305;DHT22;4690;52.422;13.486;2022-11-20T13:12:33;0.90;99.90
9305;DHT22;4690;52.422;13.486;2022-11-20T13:18:04;0.90;99.90
9305;DHT22;4690;52.422;13.486;2022-11-20T13:20:35;0.80;99.90
9305;DHT22;4690;52.422;13.486;2022-11-20T13:23:06;0.80;99.90
9305;DHT22;4690;52.422;13.486;2022-11-20T13:25:35;0.90;99.90
9305;DHT22;4690;52.422;13.486;2022-11-20T13:28:28;0.90;99.90
9305;DHT22;4690;52.422;13.486;2022-11-20T13:30:56;0.80;99.90
9305;DHT22;4690;52.422;13.486;2022-11-20T13:33:35;0.80;99.90
9305;DHT22;4690;52.422;13.486;2022-11-20T13:36:07;0.80;99.90
9305;DHT22;4690;52.422;13.486;2022-11-20T13:38:50;0.70;99.90
9305;DHT22;4690;52.422;13.486;2022-11-20T13:41:32;0.70;99.90
9305;DHT22;4690;52.422;13.486;2022-11-20T13:46:41;0.70;99.90
9305;DHT22;4690;52.422;13.486;2022-11-20T13:58:20;0.60;99.90
9305;DHT22;4690;52.422;13.486;2022-11-20T14:00:26;0.60;99.90
9305;DHT22;4690;52.422;13.486;2022-11-20T14:05:52;0.50;99.90
9305;DHT22;4690;52.422;13.486;2022-11-20T14:08:33;0.50;99.90
9305;DHT22;4690;52.422;13.486;2022-11-20T14:11:14;0.50;99.90
9305;DHT22;4690;52.422;13.486;2022-11-20T14:14:16;0.50;99.90
9305;DHT22;4690;52.422;13.486;2022-11-20T14:16:45;0.50;99.90
9305;DHT22;4690;52.422;13.486;2022-11-20T14:21:53;0.50;99.90
9305;DHT22;4690;52.422;13.486;2022-11-20T14:24:31;0.50;99.90
9305;DHT22;4690;52.422;13.486;2022-11-20T14:26:57;0.70;99.90
9305;DHT22;4690;52.422;13.486;2022-11-20T14:29:33;0.60;99.90
9305;DHT22;4690;52.422;13.486;2022-11-20T14:32:02;0.60;99.90
9305;DHT22;4690;52.422;13.486;2022-11-20T14:34:31;0.60;99.90
9305;DHT22;4690;52.422;13.486;2022-11-20T14:37:05;0.60;99.90
9305;DHT22;4690;52.422;13.486;2022-11-20T14:39:40;0.60;99.90
9305;DHT22;4690;52.422;13.486;2022-11-20T14:42:18;0.60;99.90
9305;DHT22;4690;52.422;13.486;2022-11-20T14:44:50;0.60;99.90
9305;DHT22;4690;52.422;13.486;2022-11-20T14:47:23;0.60;99.90
9305;DHT22;4690;52.422;13.486;2022-11-20T14:49:53;0.60;99.90
9305;DHT22;4690;52.422;13.486;2022-11-20T14:52:22;0.60;99.90
9305;DHT22;4690;52.422;13.486;2022-11-20T14:54:55;0.50;99.90
9305;DHT22;4690;52.422;13.486;2022-11-20T14:57:33;0.60;99.90
9305;DHT22;4690;52.422;13.486;2022-11-20T15:00:20;0.60;99.90
9305;DHT22;4690;52.422;13.486;2022-11-20T15:02:48;0.60;99.90
9305;DHT22;4690;52.422;13.486;2022-11-20T15:05:18;0.60;99.90
9305;DHT22;4690;52.422;13.486;2022-11-20T15:08:03;0.60;99.90
9305;DHT22;4690;52.422;13.486;2022-11-20T15:10:33;0.50;99.90
9305;DHT22;4690;52.422;13.486;2022-11-20T15:13:02;0.50;99.90
9305;DHT22;4690;52.422;13.486;2022-11-20T15:15:35;0.60;99.90
9305;DHT22;4690;52.422;13.486;2022-11-20T15:18:04;0.60;99.90
9305;DHT22;4690;52.422;13.486;2022-11-20T15:20:32;0.60;99.90
9305;DHT22;4690;52.422;13.486;2022-11-20T15:22:59;0.60;99.90
9305;DHT22;4690;52.422;13.486;2022-11-20T15:25:24;0.60;99.90
9305;DHT22;4690;52.422;13.486;2022-11-20T15:28:00;0.60;99.90
9305;DHT22;4690;52.422;13.486;2022-11-20T15:30:25;0.60;99.90
9305;DHT22;4690;52.422;13.486;2022-11-20T15:32:51;0.60;99.90
9305;DHT22;4690;52.422;13.486;2022-11-20T15:35:17;0.60;99.90
9305;DHT22;4690;52.422;13.486;2022-11-20T15:37:43;0.60;99.90
9305;DHT22;4690;52.422;13.486;2022-11-20T15:40:09;0.60;99.90
9305;DHT22;4690;52.422;13.486;2022-11-20T15:42:35;0.60;99.90
9305;DHT22;4690;52.422;13.486;2022-11-20T15:45:01;0.70;99.90
9305;DHT22;4690;52.422;13.486;2022-11-20T15:47:33;0.60;99.90
9305;DHT22;4690;52.422;13.486;2022-11-20T15:50:00;0.60;99.90
9305;DHT22;4690;52.422;13.486;2022-11-20T15:52:26;0.60;99.90
9305;DHT22;4690;52.422;13.486;2022-11-20T15:54:52;0.60;99.90
9305;DHT22;4690;52.422;13.486;2022-11-20T15:57:18;0.60;99.90
9305;DHT22;4690;52.422;13.486;2022-11-20T15:59:44;0.60;99.90
9305;DHT22;4690;52.422;13.486;2022-11-20T16:02:14;0.60;99.90
9305;DHT22;4690;52.422;13.486;2022-11-20T16:04:41;0.60;99.90
9305;DHT22;4690;52.422;13.486;2022-11-20T16:07:09;0.60;99.90
9305;DHT22;4690;52.422;13.486;2022-11-20T16:09:35;0.60;99.90
9305;DHT22;4690;52.422;13.486;2022-11-20T16:12:01;0.60;99.90
9305;DHT22;4690;52.422;13.486;2022-11-20T16:14:27;0.60;99.90
9305;DHT22;4690;52.422;13.486;2022-11-20T16:17:12;0.60;99.90
9305;DHT22;4690;52.422;13.486;2022-11-20T16:19:38;0.60;99.90
9305;DHT22;4690;52.422;13.486;2022-11-20T16:22:04;0.50;99.90
9305;DHT22;4690;52.422;13.486;2022-11-20T16:24:30;0.50;99.90
9305;DHT22;4690;52.422;13.486;2022-11-20T16:26:56;0.50;99.90
9305;DHT22;4690;52.422;13.486;2022-11-20T16:29:22;0.50;99.90
9305;DHT22;4690;52.422;13.486;2022-11-20T16:31:48;0.50;99.90
9305;DHT22;4690;52.422;13.486;2022-11-20T16:34:16;0.40;99.90
9305;DHT22;4690;52.422;13.486;2022-11-20T16:36:43;0.40;99.90
9305;DHT22;4690;52.422;13.486;2022-11-20T16:39:11;0.30;99.90
9305;DHT22;4690;52.422;13.486;2022-11-20T16:41:37;0.30;99.90
9305;DHT22;4690;52.422;13.486;2022-11-20T16:44:07;0.30;99.90
9305;DHT22;4690;52.422;13.486;2022-11-20T16:46:35;0.20;99.90
9305;DHT22;4690;52.422;13.486;2022-11-20T16:49:06;0.20;99.90
9305;DHT22;4690;52.422;13.486;2022-11-20T16:51:36;0.20;99.90
9305;DHT22;4690;52.422;13.486;2022-11-20T16:54:03;0.20;99.90
9305;DHT22;4690;52.422;13.486;2022-11-20T16:56:29;0.20;99.90
9305;DHT22;4690;52.422;13.486;2022-11-20T16:58:57;0.20;99.90
9305;DHT22;4690;52.422;13.486;2022-11-20T17:01:25;0.20;99.90
9305;DHT22;4690;52.422;13.486;2022-11-20T17:04:01;0.20;99.90
9305;DHT22;4690;52.422;13.486;2022-11-20T17:06:38;0.20;99.90
9305;DHT22;4690;52.422;13.486;2022-11-20T17:09:09;0.10;99.90
9305;DHT22;4690;52.422;13.486;2022-11-20T17:11:36;0.20;99.90
9305;DHT22;4690;52.422;13.486;2022-11-20T17:14:03;0.10;99.90
9305;DHT22;4690;52.422;13.486;2022-11-20T17:16:29;0.10;99.90
9305;DHT22;4690;52.422;13.486;2022-11-20T17:18:56;0.10;99.90
9305;DHT22;4690;52.422;13.486;2022-11-20T17:21:23;0.00;99.90
9305;DHT22;4690;52.422;13.486;2022-11-20T17:23:50;0.00;99.90
9305;DHT22;4690;52.422;13.486;2022-11-20T17:26:18;-0.10;99.90
9305;DHT22;4690;52.422;13.486;2022-11-20T17:31:38;-0.10;99.90
9305;DHT22;4690;52.422;13.486;2022-11-20T17:34:07;-0.10;99.90
9305;DHT22;4690;52.422;13.486;2022-11-20T17:36:35;-0.10;99.90
9305;DHT22;4690;52.422;13.486;2022-11-20T17:39:01;-0.10;99.90
9305;DHT22;4690;52.422;13.486;2022-11-20T17:41:28;-0.20;99.90
9305;DHT22;4690;52.422;13.486;2022-11-20T17:43:58;-0.20;99.90
9305;DHT22;4690;52.422;13.486;2022-11-20T17:46:27;-0.20;99.90
9305;DHT22;4690;52.422;13.486;2022-11-20T17:48:57;-0.20;99.90
9305;DHT22;4690;52.422;13.486;2022-11-20T17:51:25;-0.20;99.90